createdAt,value
2018-05-01T00:00:25.331Z,953.53
2018-05-01T00:02:34.333Z,953.46
2018-05-01T00:03:36.334Z,953.51
2018-05-01T00:05:35.435Z,953.56
2018-05-01T00:06:35.346Z,953.50
2018-05-01T00:07:35.685Z,953.51
2018-05-01T00:08:35.700Z,953.50
2018-05-01T00:09:35.664Z,953.51
2018-05-01T00:10:36.219Z,953.48
2018-05-01T00:11:36.261Z,953.56
2018-05-01T00:12:36.241Z,953.53
2018-05-01T00:13:36.229Z,953.49
2018-05-01T00:14:35.705Z,953.47
2018-05-01T00:15:35.705Z,953.46
2018-05-01T00:16:35.714Z,953.54
2018-05-01T00:17:36.200Z,953.46
2018-05-01T00:18:35.842Z,953.56
2018-05-01T00:19:35.752Z,953.48
2018-05-01T00:20:35.516Z,953.48
2018-05-01T00:21:35.928Z,953.41
2018-05-01T00:22:36.283Z,953.42
2018-05-01T00:24:04.599Z,953.49
2018-05-01T00:25:30.640Z,953.51
2018-05-01T00:26:30.622Z,953.64
2018-05-01T00:28:53.587Z,953.57
2018-05-01T00:31:06.200Z,953.66
2018-05-01T00:32:06.232Z,953.62
2018-05-01T00:34:25.793Z,953.57
2018-05-01T00:35:17.105Z,953.50
2018-05-01T00:37:14.519Z,953.61
2018-05-01T00:38:12.528Z,953.67
2018-05-01T00:40:48.459Z,953.64
2018-05-01T00:41:26.204Z,953.64
2018-05-01T00:43:47.598Z,953.74
2018-05-01T00:44:27.693Z,953.78
2018-05-01T00:45:27.709Z,953.64
2018-05-01T00:46:47.636Z,953.72
2018-05-01T00:48:36.857Z,953.62
2018-05-01T00:49:36.825Z,953.60
2018-05-01T00:50:36.848Z,953.59
2018-05-01T00:51:37.624Z,953.56
2018-05-01T00:52:36.833Z,953.58
2018-05-01T00:53:39.634Z,953.55
2018-05-01T00:54:36.897Z,953.68
2018-05-01T00:55:39.645Z,953.61
2018-05-01T00:56:39.657Z,953.62
2018-05-01T00:57:39.565Z,953.62
2018-05-01T01:00:27.065Z,953.56
2018-05-01T01:05:39.145Z,953.65
2018-05-01T01:06:39.130Z,953.70
2018-05-01T01:07:39.966Z,953.80
2018-05-01T01:08:39.965Z,953.62
2018-05-01T01:09:39.147Z,953.61
2018-05-01T01:10:39.215Z,953.55
2018-05-01T01:11:39.121Z,953.52
2018-05-01T01:12:39.107Z,953.54
2018-05-01T01:13:39.108Z,953.56
2018-05-01T01:14:39.147Z,953.60
2018-05-01T01:15:39.152Z,953.49
2018-05-01T01:16:39.167Z,953.81
2018-05-01T01:17:39.102Z,953.72
2018-05-01T01:18:39.158Z,953.49
2018-05-01T01:19:39.104Z,953.69
2018-05-01T01:20:39.110Z,953.53
2018-05-01T01:21:39.096Z,953.47
2018-05-01T01:22:39.142Z,953.48
2018-05-01T01:23:39.216Z,953.67
2018-05-01T01:24:39.171Z,953.58
2018-05-01T01:25:39.241Z,953.49
2018-05-01T01:26:39.153Z,953.53
2018-05-01T01:27:39.157Z,953.49
2018-05-01T01:28:39.234Z,953.57
2018-05-01T01:29:39.974Z,953.59
2018-05-01T01:30:39.152Z,953.51
2018-05-01T01:31:39.085Z,953.47
2018-05-01T01:32:39.121Z,953.63
2018-05-01T01:33:39.088Z,953.54
2018-05-01T01:34:39.140Z,953.39
2018-05-01T01:35:39.214Z,953.47
2018-05-01T01:36:39.100Z,953.53
2018-05-01T01:37:39.088Z,953.30
2018-05-01T01:38:39.119Z,953.32
2018-05-01T01:39:40.167Z,953.45
2018-05-01T01:40:39.082Z,953.49
2018-05-01T01:41:41.347Z,953.45
2018-05-01T01:42:40.065Z,953.42
2018-05-01T01:43:40.073Z,953.45
2018-05-01T01:44:39.184Z,953.38
2018-05-01T01:45:39.184Z,953.51
2018-05-01T01:48:17.283Z,953.39
2018-05-01T01:49:15.458Z,953.43
2018-05-01T01:50:15.456Z,953.48
2018-05-01T01:51:15.461Z,953.42
2018-05-01T01:52:15.457Z,953.55
2018-05-01T01:53:15.474Z,953.42
2018-05-01T01:54:15.464Z,953.44
2018-05-01T01:55:15.464Z,953.54
2018-05-01T01:56:15.447Z,953.48
2018-05-01T01:57:15.447Z,953.44
2018-05-01T01:59:47.293Z,953.52
2018-05-01T02:00:46.346Z,953.43
2018-05-01T02:01:46.357Z,953.53
2018-05-01T02:02:46.353Z,953.54
2018-05-01T02:03:47.309Z,953.49
2018-05-01T02:04:48.265Z,953.68
2018-05-01T02:05:46.441Z,953.39
2018-05-01T02:06:47.337Z,953.60
2018-05-01T02:07:46.371Z,953.52
2018-05-01T02:08:46.335Z,953.60
2018-05-01T02:09:47.242Z,953.57
2018-05-01T02:10:46.399Z,953.40
2018-05-01T02:11:46.329Z,953.52
2018-05-01T02:12:46.355Z,953.27
2018-05-01T02:13:47.298Z,953.43
2018-05-01T02:14:48.681Z,953.54
2018-05-01T02:15:46.361Z,953.41
2018-05-01T02:16:46.370Z,953.48
2018-05-01T02:17:46.376Z,953.43
2018-05-01T02:18:46.319Z,953.40
2018-05-01T02:19:46.358Z,953.33
2018-05-01T02:20:46.432Z,953.50
2018-05-01T02:21:47.184Z,953.41
2018-05-01T02:22:46.316Z,953.44
2018-05-01T02:23:46.361Z,953.51
2018-05-01T02:24:46.391Z,953.46
2018-05-01T02:25:46.303Z,953.45
2018-05-01T02:26:47.320Z,953.46
2018-05-01T02:27:46.435Z,953.55
2018-05-01T02:28:46.351Z,953.53
2018-05-01T02:29:46.347Z,953.55
2018-05-01T02:30:46.302Z,953.43
2018-05-01T02:31:46.297Z,953.50
2018-05-01T02:32:46.348Z,953.50
2018-05-01T02:33:47.202Z,953.45
2018-05-01T02:34:46.351Z,953.44
2018-05-01T02:35:46.288Z,953.45
2018-05-01T02:36:46.482Z,953.43
2018-05-01T02:37:46.498Z,953.40
2018-05-01T02:38:51.618Z,953.44
2018-05-01T02:39:48.185Z,953.50
2018-05-01T02:41:09.542Z,953.48
2018-05-01T02:41:46.566Z,953.58
2018-05-01T02:43:01.332Z,953.55
2018-05-01T02:43:46.312Z,953.50
2018-05-01T02:45:00.257Z,953.58
2018-05-01T02:46:42.721Z,953.50
2018-05-01T02:47:42.169Z,953.70
2018-05-01T02:49:37.599Z,953.52
2018-05-01T02:50:37.662Z,953.59
2018-05-01T02:52:44.558Z,953.48
2018-05-01T02:53:44.534Z,953.54
2018-05-01T02:55:43.456Z,953.58
2018-05-01T02:56:43.410Z,953.41
2018-05-01T02:59:14.493Z,953.53
2018-05-01T03:00:14.500Z,953.53
2018-05-01T03:02:31.974Z,953.72
2018-05-01T03:03:18.946Z,953.64
2018-05-01T03:04:18.922Z,953.52
2018-05-01T03:05:18.897Z,953.66
2018-05-01T03:06:18.894Z,953.50
2018-05-01T03:07:18.901Z,953.62
2018-05-01T03:08:18.919Z,953.57
2018-05-01T03:09:33.966Z,953.54
2018-05-01T03:11:38.888Z,953.60
2018-05-01T03:14:23.659Z,953.56
2018-05-01T03:16:52.738Z,953.61
2018-05-01T03:23:47.112Z,953.69
2018-05-01T03:26:57.911Z,953.79
2018-05-01T03:27:35.507Z,953.77
2018-05-01T03:29:52.037Z,953.75
2018-05-01T03:30:57.557Z,953.85
2018-05-01T03:32:38.313Z,953.76
2018-05-01T03:33:37.783Z,953.82
2018-05-01T03:35:32.321Z,953.93
2018-05-01T03:36:32.314Z,953.88
2018-05-01T03:38:32.279Z,953.97
2018-05-01T03:39:32.211Z,953.91
2018-05-01T03:40:32.684Z,953.85
2018-05-01T03:41:32.698Z,953.86
2018-05-01T03:42:32.735Z,953.97
2018-05-01T03:43:33.746Z,953.89
2018-05-01T03:45:59.755Z,953.97
2018-05-01T03:46:59.721Z,954.00
2018-05-01T03:47:59.738Z,953.94
2018-05-01T03:48:59.713Z,953.90
2018-05-01T03:49:59.712Z,954.06
2018-05-01T03:50:59.709Z,953.93
2018-05-01T03:51:59.704Z,953.99
2018-05-01T03:53:08.369Z,953.94
2018-05-01T03:54:56.675Z,953.98
2018-05-01T03:56:10.869Z,954.03
2018-05-01T03:57:50.987Z,954.03
2018-05-01T03:58:50.986Z,954.24
2018-05-01T04:00:56.495Z,954.20
2018-05-01T04:03:28.120Z,954.10
2018-05-01T04:04:28.018Z,954.07
2018-05-01T04:05:37.853Z,954.07
2018-05-01T04:06:28.038Z,954.14
2018-05-01T04:07:46.621Z,954.03
2018-05-01T04:09:37.457Z,954.07
2018-05-01T04:14:01.367Z,954.10
2018-05-01T04:14:48.879Z,954.22
2018-05-01T04:15:48.855Z,954.15
2018-05-01T04:16:48.848Z,954.13
2018-05-01T04:17:48.845Z,954.14
2018-05-01T04:18:48.889Z,954.12
2018-05-01T04:19:48.900Z,954.17
2018-05-01T04:20:48.903Z,954.14
2018-05-01T04:21:48.835Z,954.21
2018-05-01T04:22:48.836Z,954.13
2018-05-01T04:23:48.832Z,954.13
2018-05-01T04:24:48.836Z,954.20
2018-05-01T04:25:48.852Z,954.12
2018-05-01T04:26:48.823Z,954.25
2018-05-01T04:27:48.821Z,954.27
2018-05-01T04:28:48.824Z,954.23
2018-05-01T04:29:48.818Z,954.23
2018-05-01T04:30:48.815Z,954.22
2018-05-01T04:31:48.817Z,954.18
2018-05-01T04:32:48.812Z,954.20
2018-05-01T04:33:48.807Z,954.27
2018-05-01T04:34:48.806Z,954.32
2018-05-01T04:35:48.806Z,954.37
2018-05-01T04:36:48.802Z,954.33
2018-05-01T04:37:48.799Z,954.39
2018-05-01T04:38:48.796Z,954.41
2018-05-01T04:39:48.794Z,954.40
2018-05-01T04:40:48.792Z,954.45
2018-05-01T04:41:48.790Z,954.49
2018-05-01T04:42:49.300Z,954.45
2018-05-01T04:43:49.306Z,954.53
2018-05-01T04:44:48.802Z,954.22
2018-05-01T04:45:48.781Z,954.61
2018-05-01T04:46:48.779Z,954.53
2018-05-01T04:47:48.778Z,954.56
2018-05-01T04:48:48.773Z,954.57
2018-05-01T04:49:48.772Z,954.37
2018-05-01T04:50:48.769Z,954.52
2018-05-01T04:51:48.798Z,954.48
2018-05-01T04:52:48.764Z,954.50
2018-05-01T04:53:48.761Z,954.64
2018-05-01T04:54:48.758Z,954.49
2018-05-01T04:55:48.764Z,954.55
2018-05-01T04:56:48.756Z,954.38
2018-05-01T04:57:48.756Z,954.35
2018-05-01T04:58:48.764Z,954.41
2018-05-01T04:59:49.305Z,954.52
2018-05-01T05:00:48.776Z,954.46
2018-05-01T05:01:48.756Z,954.45
2018-05-01T05:02:48.764Z,954.29
2018-05-01T05:03:48.739Z,954.47
2018-05-01T05:04:48.734Z,954.48
2018-05-01T05:05:48.737Z,954.49
2018-05-01T05:06:48.734Z,954.34
2018-05-01T05:07:48.727Z,954.34
2018-05-01T05:08:48.727Z,954.29
2018-05-01T05:09:48.768Z,954.28
2018-05-01T05:10:48.728Z,954.24
2018-05-01T05:11:48.721Z,954.54
2018-05-01T05:12:48.722Z,954.40
2018-05-01T05:13:48.717Z,954.33
2018-05-01T05:14:48.733Z,954.41
2018-05-01T05:15:48.727Z,954.35
2018-05-01T05:16:48.712Z,954.50
2018-05-01T05:17:48.704Z,954.43
2018-05-01T05:18:48.698Z,954.40
2018-05-01T05:19:48.721Z,954.31
2018-05-01T05:20:48.733Z,954.26
2018-05-01T05:21:48.756Z,954.52
2018-05-01T05:22:48.689Z,954.42
2018-05-01T05:23:48.694Z,954.56
2018-05-01T05:24:48.706Z,954.47
2018-05-01T05:25:48.679Z,954.43
2018-05-01T05:26:48.679Z,954.28
2018-05-01T05:27:48.679Z,954.55
2018-05-01T05:28:48.669Z,954.44
2018-05-01T05:29:48.699Z,954.46
2018-05-01T05:30:48.668Z,954.36
2018-05-01T05:31:48.677Z,954.76
2018-05-01T05:32:48.666Z,954.39
2018-05-01T05:33:49.309Z,954.28
2018-05-01T05:34:48.658Z,954.35
2018-05-01T05:35:48.646Z,954.45
2018-05-01T05:36:48.643Z,954.41
2018-05-01T05:37:48.651Z,954.57
2018-05-01T05:38:48.636Z,954.55
2018-05-01T05:39:48.639Z,954.57
2018-05-01T05:40:48.635Z,954.59
2018-05-01T05:41:48.654Z,954.44
2018-05-01T05:42:48.694Z,954.58
2018-05-01T05:43:48.658Z,954.57
2018-05-01T05:44:48.631Z,954.69
2018-05-01T05:45:48.648Z,954.83
2018-05-01T05:46:48.642Z,954.82
2018-05-01T05:47:48.683Z,954.35
2018-05-01T05:48:48.660Z,954.50
2018-05-01T05:49:49.310Z,954.67
2018-05-01T05:50:48.618Z,954.62
2018-05-01T05:51:48.600Z,954.64
2018-05-01T05:52:49.315Z,954.98
2018-05-01T05:53:48.613Z,954.72
2018-05-01T05:54:49.305Z,954.78
2018-05-01T05:55:48.619Z,954.61
2018-05-01T05:56:48.587Z,954.72
2018-05-01T05:57:48.595Z,954.88
2018-05-01T05:58:48.622Z,954.93
2018-05-01T05:59:48.577Z,954.98
2018-05-01T06:00:48.612Z,954.94
2018-05-01T06:01:48.585Z,954.94
2018-05-01T06:02:48.572Z,955.08
2018-05-01T06:03:48.567Z,955.02
2018-05-01T06:04:48.573Z,954.94
2018-05-01T06:05:48.567Z,954.99
2018-05-01T06:06:48.560Z,955.00
2018-05-01T06:07:48.563Z,954.99
2018-05-01T06:08:48.557Z,955.03
2018-05-01T06:09:49.319Z,955.08
2018-05-01T06:10:48.558Z,955.08
2018-05-01T06:11:48.549Z,955.10
2018-05-01T06:12:48.549Z,955.03
2018-05-01T06:13:48.582Z,954.93
2018-05-01T06:14:48.550Z,955.05
2018-05-01T06:15:48.547Z,955.11
2018-05-01T06:16:48.549Z,955.10
2018-05-01T06:17:48.547Z,955.09
2018-05-01T06:18:48.548Z,955.11
2018-05-01T06:19:48.541Z,955.02
2018-05-01T06:20:48.540Z,955.03
2018-05-01T06:21:48.569Z,955.07
2018-05-01T06:22:48.538Z,955.06
2018-05-01T06:23:48.540Z,955.15
2018-05-01T06:24:48.538Z,955.07
2018-05-01T06:25:48.538Z,955.17
2018-05-01T06:26:48.538Z,955.25
2018-05-01T06:27:49.310Z,955.39
2018-05-01T06:28:48.536Z,955.28
2018-05-01T06:29:48.556Z,955.40
2018-05-01T06:30:48.541Z,955.44
2018-05-01T06:31:48.534Z,955.56
2018-05-01T06:32:48.569Z,955.55
2018-05-01T06:33:49.312Z,955.52
2018-05-01T06:34:48.535Z,955.53
2018-05-01T06:35:48.561Z,955.66
2018-05-01T06:36:48.576Z,955.61
2018-05-01T06:37:48.534Z,955.70
2018-05-01T06:38:48.541Z,955.72
2018-05-01T06:39:48.535Z,955.77
2018-05-01T06:40:48.535Z,955.88
2018-05-01T06:41:48.536Z,955.82
2018-05-01T06:42:48.536Z,955.82
2018-05-01T06:43:48.609Z,956.03
2018-05-01T06:44:48.538Z,955.97
2018-05-01T06:45:48.541Z,956.09
2018-05-01T06:46:48.540Z,956.04
2018-05-01T06:47:48.537Z,956.13
2018-05-01T06:48:48.544Z,956.07
2018-05-01T06:49:48.544Z,956.07
2018-05-01T06:50:48.626Z,956.13
2018-05-01T06:51:48.558Z,956.12
2018-05-01T06:52:48.551Z,956.17
2018-05-01T06:53:48.555Z,956.21
2018-05-01T06:54:48.553Z,956.29
2018-05-01T06:55:48.554Z,956.33
2018-05-01T06:56:49.312Z,956.26
2018-05-01T06:57:48.572Z,956.33
2018-05-01T06:58:48.560Z,956.30
2018-05-01T06:59:48.565Z,956.23
2018-05-01T07:00:48.565Z,956.21
2018-05-01T07:01:49.313Z,956.29
2018-05-01T07:02:48.569Z,956.41
2018-05-01T07:03:48.568Z,956.26
2018-05-01T07:04:48.577Z,956.19
2018-05-01T07:05:48.598Z,956.21
2018-05-01T07:06:48.574Z,956.27
2018-05-01T07:07:48.589Z,956.34
2018-05-01T07:08:48.608Z,956.33
2018-05-01T07:09:48.593Z,956.34
2018-05-01T07:10:48.598Z,956.48
2018-05-01T07:11:48.588Z,956.38
2018-05-01T07:12:48.590Z,956.31
2018-05-01T07:13:48.615Z,956.34
2018-05-01T07:14:48.593Z,956.37
2018-05-01T07:15:48.619Z,956.44
2018-05-01T07:16:48.601Z,956.43
2018-05-01T07:17:48.605Z,956.39
2018-05-01T07:18:48.608Z,956.54
2018-05-01T07:19:48.610Z,956.58
2018-05-01T07:20:48.612Z,956.59
2018-05-01T07:21:48.615Z,956.72
2018-05-01T07:22:48.616Z,956.67
2018-05-01T07:23:48.644Z,956.62
2018-05-01T07:24:48.627Z,956.92
2018-05-01T07:25:48.631Z,956.76
2018-05-01T07:26:48.640Z,956.61
2018-05-01T07:27:48.637Z,956.53
2018-05-01T07:28:48.640Z,956.79
2018-05-01T07:29:48.647Z,956.64
2018-05-01T07:30:48.692Z,956.74
2018-05-01T07:31:48.653Z,956.82
2018-05-01T07:32:48.686Z,956.68
2018-05-01T07:33:48.661Z,956.91
2018-05-01T07:34:48.668Z,956.75
2018-05-01T07:35:48.669Z,956.77
2018-05-01T07:36:48.673Z,956.71
2018-05-01T07:37:49.320Z,956.89
2018-05-01T07:38:48.688Z,956.84
2018-05-01T07:39:48.691Z,956.88
2018-05-01T07:40:48.687Z,956.94
2018-05-01T07:41:48.725Z,956.94
2018-05-01T07:42:48.764Z,957.04
2018-05-01T07:43:49.521Z,957.05
2018-05-01T07:44:48.785Z,957.10
2018-05-01T07:45:48.712Z,957.16
2018-05-01T07:46:57.904Z,957.08
2018-05-01T07:48:43.867Z,957.19
2018-05-01T07:49:43.140Z,957.22
2018-05-01T07:50:43.176Z,957.04
2018-05-01T07:51:43.685Z,957.12
2018-05-01T07:52:43.148Z,957.29
2018-05-01T07:53:43.202Z,957.30
2018-05-01T07:54:43.179Z,957.22
2018-05-01T07:55:43.123Z,957.40
2018-05-01T07:56:43.162Z,957.27
2018-05-01T07:57:43.133Z,957.28
2018-05-01T07:58:43.168Z,957.21
2018-05-01T07:59:43.147Z,957.09
2018-05-01T08:00:43.161Z,957.40
2018-05-01T08:01:43.178Z,957.35
2018-05-01T08:02:43.201Z,957.24
2018-05-01T08:03:43.210Z,957.23
2018-05-01T08:04:43.168Z,957.26
2018-05-01T08:05:43.174Z,957.28
2018-05-01T08:06:43.179Z,957.33
2018-05-01T08:07:43.184Z,957.16
2018-05-01T08:08:43.190Z,957.25
2018-05-01T08:09:43.193Z,957.22
2018-05-01T08:10:43.199Z,957.11
2018-05-01T08:11:43.203Z,957.23
2018-05-01T08:12:43.210Z,957.22
2018-05-01T08:13:43.218Z,957.10
2018-05-01T08:14:43.273Z,957.15
2018-05-01T08:15:43.226Z,957.17
2018-05-01T08:16:43.236Z,957.20
2018-05-01T08:17:43.238Z,957.17
2018-05-01T08:18:43.264Z,957.30
2018-05-01T08:19:43.246Z,957.10
2018-05-01T08:20:43.251Z,957.13
2018-05-01T08:21:43.256Z,957.19
2018-05-01T08:22:43.262Z,957.23
2018-05-01T08:23:43.288Z,957.21
2018-05-01T08:24:43.268Z,957.22
2018-05-01T08:25:43.272Z,957.31
2018-05-01T08:26:43.277Z,957.18
2018-05-01T08:27:43.286Z,957.35
2018-05-01T08:28:43.285Z,957.34
2018-05-01T08:29:43.288Z,957.37
2018-05-01T08:30:43.292Z,957.19
2018-05-01T08:31:43.311Z,957.26
2018-05-01T08:32:43.308Z,957.29
2018-05-01T08:33:43.327Z,957.32
2018-05-01T08:34:43.304Z,957.44
2018-05-01T08:35:44.164Z,957.41
2018-05-01T08:36:43.311Z,957.58
2018-05-01T08:37:43.376Z,957.37
2018-05-01T08:38:43.354Z,957.43
2018-05-01T08:39:43.339Z,957.50
2018-05-01T08:40:43.323Z,957.39
2018-05-01T08:41:43.323Z,957.39
2018-05-01T08:42:43.327Z,957.44
2018-05-01T08:43:43.333Z,957.48
2018-05-01T08:44:43.330Z,957.61
2018-05-01T08:45:43.361Z,957.42
2018-05-01T08:46:43.355Z,957.37
2018-05-01T08:47:43.338Z,957.48
2018-05-01T08:48:43.340Z,957.44
2018-05-01T08:49:43.361Z,957.51
2018-05-01T08:50:43.370Z,957.47
2018-05-01T08:51:43.361Z,957.44
2018-05-01T08:52:43.345Z,957.63
2018-05-01T08:53:43.349Z,957.59
2018-05-01T08:54:43.352Z,957.66
2018-05-01T08:55:43.353Z,957.68
2018-05-01T08:56:43.373Z,957.63
2018-05-01T08:57:43.359Z,957.75
2018-05-01T08:58:43.359Z,957.69
2018-05-01T08:59:43.375Z,957.62
2018-05-01T09:00:43.372Z,957.64
2018-05-01T09:01:43.363Z,957.67
2018-05-01T09:02:43.365Z,957.62
2018-05-01T09:03:43.366Z,957.64
2018-05-01T09:04:43.427Z,957.69
2018-05-01T09:05:43.372Z,957.63
2018-05-01T09:06:43.374Z,957.63
2018-05-01T09:07:43.383Z,957.60
2018-05-01T09:08:43.377Z,957.79
2018-05-01T09:09:43.380Z,957.65
2018-05-01T09:10:43.379Z,957.82
2018-05-01T09:11:43.380Z,957.91
2018-05-01T09:12:43.381Z,957.79
2018-05-01T09:13:43.384Z,958.04
2018-05-01T09:14:43.388Z,957.89
2018-05-01T09:15:43.387Z,958.02
2018-05-01T09:16:43.388Z,957.86
2018-05-01T09:17:43.484Z,957.88
2018-05-01T09:18:43.391Z,957.86
2018-05-01T09:19:43.509Z,957.95
2018-05-01T09:20:43.575Z,957.94
2018-05-01T09:21:43.395Z,957.87
2018-05-01T09:22:43.396Z,957.86
2018-05-01T09:23:43.398Z,957.81
2018-05-01T09:24:43.399Z,957.80
2018-05-01T09:25:43.403Z,957.73
2018-05-01T09:26:44.112Z,957.98
2018-05-01T09:27:43.404Z,957.80
2018-05-01T09:28:43.405Z,957.83
2018-05-01T09:29:43.407Z,958.00
2018-05-01T09:30:43.410Z,957.89
2018-05-01T09:31:43.410Z,957.92
2018-05-01T09:32:43.412Z,957.81
2018-05-01T09:33:43.417Z,957.85
2018-05-01T09:34:43.418Z,957.98
2018-05-01T09:35:43.428Z,957.87
2018-05-01T09:36:43.422Z,957.91
2018-05-01T09:37:43.425Z,957.94
2018-05-01T09:38:43.428Z,957.87
2018-05-01T09:39:43.429Z,957.91
2018-05-01T09:40:43.429Z,957.96
2018-05-01T09:41:43.443Z,958.00
2018-05-01T09:42:43.460Z,958.01
2018-05-01T09:43:43.436Z,957.99
2018-05-01T09:44:43.469Z,958.03
2018-05-01T09:45:43.439Z,957.91
2018-05-01T09:46:43.444Z,958.01
2018-05-01T09:47:43.441Z,958.20
2018-05-01T09:48:43.444Z,958.13
2018-05-01T09:49:43.448Z,958.10
2018-05-01T09:50:43.449Z,958.13
2018-05-01T09:51:43.448Z,958.19
2018-05-01T09:52:43.451Z,958.19
2018-05-01T09:53:43.450Z,958.10
2018-05-01T09:54:43.453Z,958.15
2018-05-01T09:55:43.489Z,958.10
2018-05-01T09:56:43.587Z,958.10
2018-05-01T09:57:43.461Z,958.12
2018-05-01T09:58:43.457Z,958.09
2018-05-01T09:59:43.460Z,958.10
2018-05-01T10:00:43.457Z,958.26
2018-05-01T10:01:43.542Z,958.24
2018-05-01T10:02:43.462Z,958.29
2018-05-01T10:03:43.460Z,958.36
2018-05-01T10:04:43.470Z,958.21
2018-05-01T10:05:43.462Z,958.25
2018-05-01T10:06:44.119Z,958.28
2018-05-01T10:07:44.119Z,958.22
2018-05-01T10:08:43.461Z,958.22
2018-05-01T10:09:43.465Z,958.31
2018-05-01T10:10:43.465Z,958.27
2018-05-01T10:11:43.484Z,958.22
2018-05-01T10:12:43.463Z,958.19
2018-05-01T10:13:43.473Z,958.14
2018-05-01T10:14:43.468Z,958.20
2018-05-01T10:15:43.469Z,958.20
2018-05-01T10:16:43.492Z,958.14
2018-05-01T10:17:43.473Z,958.26
2018-05-01T10:18:43.513Z,958.20
2018-05-01T10:19:43.477Z,958.15
2018-05-01T10:20:43.474Z,958.10
2018-05-01T10:21:43.472Z,958.11
2018-05-01T10:22:43.487Z,958.12
2018-05-01T10:23:43.484Z,958.14
2018-05-01T10:24:43.521Z,958.11
2018-05-01T10:25:43.498Z,958.18
2018-05-01T10:26:43.479Z,958.14
2018-05-01T10:27:43.489Z,958.23
2018-05-01T10:28:44.688Z,958.16
2018-05-01T10:29:43.477Z,958.19
2018-05-01T10:30:43.476Z,958.25
2018-05-01T10:31:43.481Z,958.35
2018-05-01T10:32:43.521Z,958.29
2018-05-01T10:33:43.479Z,958.34
2018-05-01T10:34:43.512Z,958.28
2018-05-01T10:35:43.535Z,958.34
2018-05-01T10:36:43.502Z,958.35
2018-05-01T10:37:43.537Z,958.33
2018-05-01T10:38:43.566Z,958.43
2018-05-01T10:39:43.520Z,958.41
2018-05-01T10:40:43.480Z,958.43
2018-05-01T10:41:43.493Z,958.56
2018-05-01T10:42:50.666Z,958.46
2018-05-01T10:43:49.127Z,958.44
2018-05-01T10:44:43.504Z,958.56
2018-05-01T10:45:43.514Z,958.42
2018-05-01T10:46:43.502Z,958.55
2018-05-01T10:47:44.127Z,958.53
2018-05-01T10:48:52.151Z,958.72
2018-05-01T10:50:41.409Z,958.60
2018-05-01T10:51:37.857Z,958.60
2018-05-01T10:54:36.268Z,958.64
2018-05-01T10:55:36.247Z,958.66
2018-05-01T10:56:37.012Z,958.72
2018-05-01T10:57:36.205Z,958.52
2018-05-01T10:58:36.184Z,958.55
2018-05-01T10:59:36.237Z,958.62
2018-05-01T11:00:36.342Z,958.79
2018-05-01T11:01:36.185Z,958.80
2018-05-01T11:02:36.189Z,958.71
2018-05-01T11:03:36.187Z,958.71
2018-05-01T11:04:36.208Z,958.77
2018-05-01T11:05:36.207Z,958.78
2018-05-01T11:06:36.210Z,958.78
2018-05-01T11:07:36.189Z,958.76
2018-05-01T11:08:36.206Z,958.77
2018-05-01T11:09:36.192Z,958.75
2018-05-01T11:10:36.180Z,958.85
2018-05-01T11:11:36.956Z,958.83
2018-05-01T11:12:36.196Z,958.94
2018-05-01T11:13:36.195Z,958.94
2018-05-01T11:14:36.180Z,958.91
2018-05-01T11:15:37.072Z,958.95
2018-05-01T11:16:36.302Z,958.90
2018-05-01T11:17:36.236Z,958.98
2018-05-01T11:18:36.187Z,958.92
2018-05-01T11:19:36.182Z,958.96
2018-05-01T11:20:36.610Z,959.09
2018-05-01T11:21:36.175Z,958.96
2018-05-01T11:22:36.446Z,959.09
2018-05-01T11:23:36.174Z,959.15
2018-05-01T11:24:36.237Z,959.08
2018-05-01T11:25:36.174Z,959.04
2018-05-01T11:26:37.012Z,958.98
2018-05-01T11:27:36.183Z,959.02
2018-05-01T11:28:36.205Z,959.05
2018-05-01T11:29:36.172Z,958.96
2018-05-01T11:30:36.175Z,959.02
2018-05-01T11:31:36.168Z,959.02
2018-05-01T11:32:36.173Z,959.04
2018-05-01T11:33:36.213Z,959.01
2018-05-01T11:34:36.167Z,959.09
2018-05-01T11:35:36.249Z,959.07
2018-05-01T11:36:36.195Z,959.08
2018-05-01T11:37:36.175Z,959.13
2018-05-01T11:38:36.184Z,959.09
2018-05-01T11:39:36.183Z,959.07
2018-05-01T11:40:36.172Z,958.99
2018-05-01T11:41:36.163Z,959.10
2018-05-01T11:42:36.171Z,959.08
2018-05-01T11:43:36.165Z,959.05
2018-05-01T11:44:36.161Z,959.06
2018-05-01T11:45:37.309Z,959.04
2018-05-01T11:46:36.177Z,959.05
2018-05-01T11:47:36.185Z,959.07
2018-05-01T11:48:36.162Z,959.14
2018-05-01T11:49:36.362Z,959.16
2018-05-01T11:50:36.170Z,959.15
2018-05-01T11:51:36.159Z,959.13
2018-05-01T11:52:36.164Z,959.02
2018-05-01T11:53:36.159Z,959.17
2018-05-01T11:54:36.164Z,959.05
2018-05-01T11:55:36.271Z,959.11
2018-05-01T11:56:36.162Z,959.14
2018-05-01T11:57:36.967Z,959.14
2018-05-01T11:58:36.159Z,959.11
2018-05-01T11:59:36.173Z,959.03
2018-05-01T12:00:36.157Z,958.97
2018-05-01T12:01:37.136Z,959.04
2018-05-01T12:02:36.233Z,958.95
2018-05-01T12:03:36.492Z,959.08
2018-05-01T12:04:36.244Z,959.06
2018-05-01T12:05:36.165Z,959.12
2018-05-01T12:06:36.973Z,959.13
2018-05-01T12:07:37.373Z,959.08
2018-05-01T12:08:36.551Z,959.10
2018-05-01T12:09:36.280Z,959.08
2018-05-01T12:10:36.298Z,959.07
2018-05-01T12:11:36.172Z,959.08
2018-05-01T12:12:36.168Z,959.09
2018-05-01T12:13:36.172Z,959.11
2018-05-01T12:16:44.589Z,959.10
2018-05-01T12:17:44.632Z,959.07
2018-05-01T12:18:44.552Z,959.09
2018-05-01T12:19:44.558Z,959.08
2018-05-01T12:20:44.549Z,959.05
2018-05-01T12:21:44.608Z,958.98
2018-05-01T12:22:44.551Z,959.06
2018-05-01T12:23:44.615Z,959.10
2018-05-01T12:24:44.553Z,959.10
2018-05-01T12:25:44.552Z,959.07
2018-05-01T12:26:44.552Z,959.04
2018-05-01T12:27:44.612Z,959.08
2018-05-01T12:28:44.551Z,958.94
2018-05-01T12:29:44.549Z,958.97
2018-05-01T12:30:44.553Z,959.00
2018-05-01T12:31:44.554Z,958.86
2018-05-01T12:32:44.641Z,958.87
2018-05-01T12:33:44.555Z,958.95
2018-05-01T12:34:45.574Z,958.86
2018-05-01T12:35:45.109Z,958.89
2018-05-01T12:36:44.617Z,958.92
2018-05-01T12:37:44.560Z,959.00
2018-05-01T12:38:44.559Z,959.01
2018-05-01T12:39:44.559Z,958.96
2018-05-01T12:40:44.565Z,958.93
2018-05-01T12:41:44.562Z,958.97
2018-05-01T12:42:44.563Z,958.99
2018-05-01T12:43:45.079Z,958.95
2018-05-01T12:44:44.561Z,958.97
2018-05-01T12:45:44.566Z,958.99
2018-05-01T12:46:44.567Z,958.96
2018-05-01T12:47:44.576Z,958.93
2018-05-01T12:48:44.584Z,958.90
2018-05-01T12:49:44.571Z,958.93
2018-05-01T12:50:44.572Z,958.95
2018-05-01T12:51:44.570Z,958.92
2018-05-01T12:52:44.575Z,958.92
2018-05-01T12:53:44.593Z,958.94
2018-05-01T12:54:44.576Z,958.91
2018-05-01T12:55:44.577Z,958.93
2018-05-01T12:56:44.578Z,958.97
2018-05-01T12:57:44.621Z,958.96
2018-05-01T12:58:44.608Z,958.90
2018-05-01T12:59:44.650Z,958.99
2018-05-01T13:00:44.585Z,958.97
2018-05-01T13:01:44.583Z,959.00
2018-05-01T13:02:44.587Z,958.95
2018-05-01T13:03:44.585Z,958.90
2018-05-01T13:04:45.283Z,958.95
2018-05-01T13:05:44.587Z,958.96
2018-05-01T13:06:44.588Z,958.91
2018-05-01T13:07:44.604Z,958.91
2018-05-01T13:08:44.692Z,958.97
2018-05-01T13:09:44.591Z,959.03
2018-05-01T13:10:44.594Z,959.02
2018-05-01T13:11:44.592Z,959.07
2018-05-01T13:12:44.593Z,959.10
2018-05-01T13:13:44.597Z,959.22
2018-05-01T13:14:44.596Z,959.19
2018-05-01T13:15:44.596Z,959.10
2018-05-01T13:16:44.597Z,959.04
2018-05-01T13:17:44.599Z,959.15
2018-05-01T13:18:44.607Z,959.14
2018-05-01T13:19:44.599Z,959.31
2018-05-01T13:20:44.635Z,959.37
2018-05-01T13:21:45.580Z,959.37
2018-05-01T13:22:44.607Z,959.38
2018-05-01T13:23:44.729Z,959.48
2018-05-01T13:24:44.609Z,959.58
2018-05-01T13:25:46.262Z,959.59
2018-05-01T13:26:44.659Z,959.65
2018-05-01T13:27:44.674Z,959.65